All
Kyogle Hospital Airport YXKO Weather
There is no TAF data available at YXKO. Showing TAF data for YLIS (21 mi SE).
LSY Terminal Area Forecast (no data for YXKO)
| Here is the undecoded forecast: 2026/05/10 01:24 YLIS 100124Z 1002/1014 36008KT 9999 -SHRA FEW025 SCT035 FM100300 16010KT 9999 -SHRA FEW030 SCT045 FM100900 36006KT 9999 -SHRA SCT025 BKN030 INTER 1002/1014 4000 SHRA BKN010 RMK T 21 21 17 15 Q 1025 1025 1026 1027 |
There is no METAR data available at YXKO. Showing METAR data for YCAS (18 mi S).
Recent CSI METAR history (no data for YXKO)
| Date | Time (AEST) | Flight Rules | Wind Dir. | Speed | Type | Height AGL (ft) | Visibility | Temp (°C) | Temp (°F) | Dew Point (°C) | Dew Point (°F) | Rel. Humid. | Pressure | Density Altitude | Remarks |
|---|---|---|---|---|---|---|---|---|---|---|---|---|---|---|---|
| 10-May | 02:00PM | n/a | 200° | 5 kt | Missing | 23° | 73° | 13° | 55° | 53% | 1025 mb | 697 ft | |||
| 10-May | 01:00PM | n/a | 250° | 6 kt | Missing | 22° | 71° | 13° | 55° | 57% | 1026 mb | 547 ft | |||
| 10-May | 12:00PM | n/a | 320° | 3 kt | Missing | 21° | 69° | 15° | 59° | 69% | 1026 mb | 427 ft | |||
| 10-May | 11:00AM | n/a | 310° | 5 kt | Missing | 19° | 66° | 14° | 57° | 73% | 1028 mb | 128 ft | |||
| 10-May | 10:00AM | n/a | 10° | 1 kt | Missing | 17° | 62° | 13° | 55° | 77% | 1027 mb | -82 ft | |||
| 10-May | 09:00AM | n/a | 10° | 3 kt | Missing | 16° | 60° | 12° | 53° | 77% | 1027 mb | -202 ft | |||
| 10-May | 08:00AM | n/a | 320° | 4 kt | Missing | 15° | 59° | 12° | 53° | 82% | 1027 mb | -322 ft | |||
| 10-May | 07:00AM | n/a | 290° | 1 kt | Missing | 12° | 53° | 11° | 51° | 94% | 1026 mb | -653 ft | |||
| 10-May | 06:00AM | n/a | 290° | 3 kt | Missing | 11° | 51° | 11° | 51° | 100% | 1026 mb | -773 ft | |||
| 10-May | 05:00AM | n/a | 280° | 4 kt | Missing | 10° | 50° | 10° | 50° | 100% | 1025 mb | -863 ft | |||
| 10-May | 04:00AM | n/a | Calm | Missing | 9° | 48° | 9° | 48° | 100% | 1025 mb | -983 ft | ||||
| 10-May | 03:00AM | n/a | 290° | 3 kt | Missing | 10° | 50° | 9° | 48° | 93% | 1024 mb | -834 ft | |||
| 10-May | 02:00AM | n/a | 300° | 3 kt | Missing | 11° | 51° | 10° | 50° | 94% | 1024 mb | -714 ft | |||
| 10-May | 01:00AM | n/a | 290° | 4 kt | Missing | 11° | 51° | 11° | 51° | 100% | 1025 mb | -743 ft | |||
| 10-May | 12:00AM | n/a | 290° | 4 kt | Missing | 11° | 51° | 11° | 51° | 100% | 1025 mb | -743 ft | |||
| 09-May | 11:00PM | n/a | 190° | 3 kt | Missing | 11° | 51° | 11° | 51° | 100% | 1025 mb | -743 ft | |||
| 09-May | 10:00PM | n/a | 190° | 3 kt | Missing | 12° | 53° | 11° | 51° | 94% | 1025 mb | -623 ft | |||
| 09-May | 09:00PM | n/a | 190° | 3 kt | Missing | 12° | 53° | 11° | 51° | 94% | 1025 mb | -623 ft | |||
| 09-May | 08:00PM | n/a | 150° | 2 kt | Missing | 12° | 53° | 11° | 51° | 94% | 1024 mb | -594 ft | |||
| 09-May | 07:00PM | n/a | Calm | Missing | 14° | 57° | 13° | 55° | 94% | 1024 mb | -354 ft | ||||
| 09-May | 06:00PM | n/a | Calm | Missing | 16° | 60° | 12° | 53° | 77% | 1023 mb | -84 ft | ||||
| 09-May | 05:00PM | n/a | 120° | 4 kt | Missing | 19° | 66° | 10° | 50° | 56% | 1023 mb | 276 ft | |||
| 09-May | 04:00PM | n/a | 120° | 5 kt | Missing | 23° | 73° | 8° | 46° | 38% | 1022 mb | 785 ft | |||
| 09-May | 03:00PM | n/a | 150° | 4 kt | Missing | 23° | 73° | 8° | 46° | 38% | 1022 mb | 785 ft |
Login
| Your browser is unsupported. upgrade your browser |
